createdAt,value
2018-04-01T00:05:35.778Z,11.43
2018-04-01T00:15:45.514Z,11.17
2018-04-01T00:25:53.668Z,11.57
2018-04-01T00:36:00.131Z,12.37
2018-04-01T00:46:07.333Z,12.50
2018-04-01T00:56:14.911Z,12.33
2018-04-01T01:06:24.892Z,12.50
2018-04-01T01:16:37.838Z,13.00
2018-04-01T01:36:54.954Z,11.93
2018-04-01T01:47:01.799Z,11.20
2018-04-01T01:57:13.148Z,11.47
2018-04-01T02:07:22.328Z,12.07
2018-04-01T02:17:31.678Z,11.57
2018-04-01T02:27:42.910Z,10.90
2018-04-01T02:37:50.171Z,12.07
2018-04-01T02:47:58.383Z,11.37
2018-04-01T02:58:05.818Z,12.70
2018-04-01T03:08:20.289Z,12.57
2018-04-01T03:18:32.706Z,13.10
2018-04-01T03:28:41.203Z,12.63
2018-04-01T03:38:48.312Z,13.07
2018-04-01T03:48:57.123Z,13.03
2018-04-01T03:59:05.501Z,13.13
2018-04-01T04:09:20.531Z,13.40
2018-04-01T04:19:30.100Z,13.60
2018-04-01T04:29:37.719Z,15.57
2018-04-01T04:39:44.558Z,15.80
2018-04-01T04:49:51.193Z,15.77
2018-04-01T04:59:58.824Z,15.20
2018-04-01T05:10:10.428Z,15.50
2018-04-01T05:20:18.624Z,14.93
2018-04-01T05:30:28.105Z,15.63
2018-04-01T05:40:35.059Z,15.27
2018-04-01T05:50:43.484Z,16.43
2018-04-01T06:00:51.514Z,17.40
2018-04-01T06:11:03.420Z,17.90
2018-04-01T06:21:12.216Z,19.37
2018-04-01T06:31:23.280Z,20.37
2018-04-01T06:41:33.292Z,22.20
2018-04-01T06:51:45.663Z,25.97
2018-04-01T07:01:54.054Z,24.50
2018-04-01T07:12:10.279Z,25.47
2018-04-01T07:22:18.229Z,27.17
2018-04-01T07:32:28.232Z,26.33
2018-04-01T07:42:36.305Z,26.10
2018-04-01T08:03:28.317Z,26.57
2018-04-01T08:13:36.016Z,27.17
2018-04-01T08:33:51.166Z,25.83
2018-04-01T08:44:06.175Z,28.60
2018-04-01T09:15:06.003Z,25.80
2018-04-01T09:25:20.981Z,26.13
2018-04-01T09:35:27.919Z,25.13
2018-04-01T09:45:39.420Z,23.33
2018-04-01T09:55:53.894Z,23.13
2018-04-01T10:16:40.082Z,22.60
2018-04-01T10:58:36.362Z,20.97
2018-04-01T11:08:51.269Z,20.53
2018-04-01T11:19:01.517Z,19.83
2018-04-01T11:29:08.686Z,18.67
2018-04-01T11:39:22.064Z,18.30
2018-04-01T11:49:30.662Z,19.23
2018-04-01T11:59:39.986Z,19.03
2018-04-01T12:09:52.555Z,18.87
2018-04-01T12:20:04.420Z,17.70
2018-04-01T12:30:11.669Z,17.70
2018-04-01T12:40:25.826Z,17.53
2018-04-01T12:50:34.043Z,17.20
2018-04-01T13:10:59.319Z,16.87
2018-04-01T13:21:08.377Z,19.23
2018-04-01T14:02:40.784Z,16.70
2018-04-01T14:12:54.532Z,17.57
2018-04-01T14:23:22.208Z,16.33
2018-04-01T14:33:38.007Z,17.23
2018-04-01T14:54:04.297Z,17.00
2018-04-01T15:04:16.857Z,16.77
2018-04-01T15:14:32.493Z,16.67
2018-04-01T15:24:48.892Z,16.60
2018-04-01T15:45:36.639Z,15.83
2018-04-01T16:16:51.397Z,15.53
2018-04-01T17:19:41.752Z,13.70
2018-04-01T17:30:03.204Z,14.30
2018-04-01T19:03:47.945Z,12.27
2018-04-01T19:13:59.501Z,11.57
2018-04-01T19:24:08.779Z,11.77
2018-04-01T20:37:23.134Z,10.60
2018-04-01T21:08:38.487Z,10.30
2018-04-01T21:18:47.720Z,10.30
2018-04-01T21:39:16.233Z,10.53
